createdAt,value
2018-09-06T00:00:47.224Z,17.08
2018-09-06T00:01:47.208Z,17.11
2018-09-06T00:02:47.193Z,17.03
2018-09-06T00:03:47.177Z,16.93
2018-09-06T00:04:47.200Z,17.08
2018-09-06T00:05:47.150Z,17.00
2018-09-06T00:06:47.133Z,16.89
2018-09-06T00:07:47.117Z,17.03
2018-09-06T00:08:47.103Z,17.03
2018-09-06T00:09:47.090Z,16.93
2018-09-06T00:10:47.071Z,16.98
2018-09-06T00:11:47.060Z,17.04
2018-09-06T00:12:47.040Z,16.97
2018-09-06T00:13:47.024Z,17.01
2018-09-06T00:14:47.012Z,16.91
2018-09-06T00:15:46.995Z,16.93
2018-09-06T00:16:46.979Z,16.96
2018-09-06T00:17:46.970Z,16.91
2018-09-06T00:18:46.948Z,16.85
2018-09-06T00:19:46.935Z,16.89
2018-09-06T00:20:46.917Z,16.86
2018-09-06T00:21:46.907Z,16.91
2018-09-06T00:22:46.886Z,16.89
2018-09-06T00:23:46.873Z,16.85
2018-09-06T00:24:46.855Z,16.83
2018-09-06T00:25:46.840Z,16.82
2018-09-06T00:26:46.825Z,16.81
2018-09-06T00:27:46.812Z,16.79
2018-09-06T00:28:46.795Z,16.82
2018-09-06T00:29:46.782Z,16.75
2018-09-06T00:30:46.764Z,16.81
2018-09-06T00:31:46.757Z,16.73
2018-09-06T00:32:46.733Z,16.71
2018-09-06T00:33:46.716Z,16.66
2018-09-06T00:34:46.701Z,16.67
2018-09-06T00:35:46.689Z,16.67
2018-09-06T00:36:46.678Z,16.61
2018-09-06T00:37:46.653Z,16.66
2018-09-06T00:38:46.643Z,16.64
2018-09-06T00:39:46.624Z,16.50
2018-09-06T00:40:46.611Z,16.53
2018-09-06T00:41:46.592Z,16.53
2018-09-06T00:42:46.577Z,16.56
2018-09-06T00:43:46.561Z,16.53
2018-09-06T00:44:46.550Z,16.53
2018-09-06T00:45:46.529Z,16.46
2018-09-06T00:46:46.517Z,16.45
2018-09-06T00:47:47.512Z,16.39
2018-09-06T00:48:46.487Z,16.42
2018-09-06T00:49:46.466Z,16.45
2018-09-06T00:50:46.451Z,16.45
2018-09-06T00:51:46.436Z,16.39
2018-09-06T00:52:46.420Z,16.38
2018-09-06T00:53:46.404Z,16.28
2018-09-06T00:54:46.388Z,16.28
2018-09-06T00:55:46.372Z,16.31
2018-09-06T00:56:46.356Z,16.33
2018-09-06T00:57:46.340Z,16.34
2018-09-06T00:58:46.330Z,16.33
2018-09-06T00:59:46.310Z,16.21
2018-09-06T01:00:46.294Z,16.30
2018-09-06T01:01:46.280Z,16.25
2018-09-06T01:02:46.261Z,16.21
2018-09-06T01:03:46.248Z,16.30
2018-09-06T01:04:46.231Z,16.27
2018-09-06T01:05:46.218Z,16.20
2018-09-06T01:06:46.200Z,16.28
2018-09-06T01:07:46.234Z,16.31
2018-09-06T01:08:46.166Z,16.35
2018-09-06T01:09:46.150Z,16.28
2018-09-06T01:10:46.136Z,16.30
2018-09-06T01:11:46.121Z,16.17
2018-09-06T01:12:46.104Z,16.25
2018-09-06T01:13:46.093Z,16.28
2018-09-06T01:14:46.073Z,16.31
2018-09-06T01:15:46.058Z,16.34
2018-09-06T01:16:46.041Z,16.35
2018-09-06T01:17:46.026Z,16.35
2018-09-06T01:18:46.010Z,16.45
2018-09-06T01:19:45.994Z,16.42
2018-09-06T01:20:45.978Z,16.42
2018-09-06T01:21:45.962Z,16.41
2018-09-06T01:22:45.947Z,16.48
2018-09-06T01:23:45.933Z,16.49
2018-09-06T01:24:45.916Z,16.56
2018-09-06T01:25:45.899Z,16.45
2018-09-06T01:26:45.883Z,16.56
2018-09-06T01:27:45.867Z,16.58
2018-09-06T01:28:45.852Z,16.67
2018-09-06T01:29:45.841Z,16.50
2018-09-06T01:30:45.819Z,16.58
2018-09-06T01:31:45.808Z,16.66
2018-09-06T01:32:45.788Z,16.61
2018-09-06T01:33:45.770Z,16.63
2018-09-06T01:34:45.757Z,16.63
2018-09-06T01:35:45.743Z,16.68
2018-09-06T01:36:45.725Z,16.64
2018-09-06T01:37:45.708Z,16.81
2018-09-06T01:38:45.693Z,16.75
2018-09-06T01:39:45.679Z,16.75
2018-09-06T01:40:45.662Z,16.73
2018-09-06T01:41:45.646Z,16.81
2018-09-06T01:42:45.629Z,16.83
2018-09-06T01:43:45.614Z,16.83
2018-09-06T01:44:45.596Z,16.82
2018-09-06T01:45:45.621Z,16.85
2018-09-06T01:46:45.569Z,16.91
2018-09-06T01:47:45.554Z,16.83
2018-09-06T01:48:45.536Z,16.83
2018-09-06T01:49:45.519Z,16.91
2018-09-06T01:50:45.536Z,16.85
2018-09-06T01:51:45.491Z,16.89
2018-09-06T01:52:45.471Z,16.94
2018-09-06T01:53:45.459Z,16.98
2018-09-06T01:54:45.440Z,16.93
2018-09-06T01:55:45.425Z,16.97
2018-09-06T01:56:45.409Z,16.96
2018-09-06T01:57:45.393Z,17.00
2018-09-06T01:58:45.377Z,17.01
2018-09-06T01:59:45.361Z,17.04
2018-09-06T02:00:45.351Z,16.89
2018-09-06T02:01:45.380Z,16.98
2018-09-06T02:02:45.316Z,16.97
2018-09-06T02:03:45.300Z,17.06
2018-09-06T02:04:45.287Z,17.07
2018-09-06T02:05:45.268Z,17.08
2018-09-06T02:06:45.252Z,17.08
2018-09-06T02:07:45.235Z,17.18
2018-09-06T02:08:45.220Z,17.18
2018-09-06T02:09:45.204Z,17.18
2018-09-06T02:10:45.191Z,17.18
2018-09-06T02:11:45.172Z,17.18
2018-09-06T02:12:45.160Z,17.22
2018-09-06T02:13:45.143Z,17.16
2018-09-06T02:14:45.128Z,17.18
2018-09-06T02:15:45.110Z,17.16
2018-09-06T02:16:45.096Z,17.14
2018-09-06T02:17:45.080Z,17.14
2018-09-06T02:18:45.065Z,17.18
2018-09-06T02:19:45.049Z,17.19
2018-09-06T02:20:45.032Z,17.23
2018-09-06T02:21:45.016Z,17.16
2018-09-06T02:22:45.003Z,17.21
2018-09-06T02:23:44.988Z,17.19
2018-09-06T02:24:44.968Z,17.19
2018-09-06T02:25:44.953Z,17.22
2018-09-06T02:26:44.937Z,17.18
2018-09-06T02:27:44.923Z,17.19
2018-09-06T02:28:44.912Z,17.19
2018-09-06T02:29:44.890Z,17.18
2018-09-06T02:30:44.873Z,17.19
2018-09-06T02:31:44.866Z,17.18
2018-09-06T02:32:44.844Z,17.18
2018-09-06T02:33:44.832Z,17.14
2018-09-06T02:34:44.814Z,17.15
2018-09-06T02:35:44.798Z,17.15
2018-09-06T02:36:44.781Z,17.21
2018-09-06T02:37:44.767Z,17.21
2018-09-06T02:38:44.750Z,17.14
2018-09-06T02:39:44.733Z,17.18
2018-09-06T02:40:44.720Z,17.14
2018-09-06T02:41:44.703Z,17.22
2018-09-06T02:42:44.686Z,17.21
2018-09-06T02:43:44.683Z,17.18
2018-09-06T02:44:44.657Z,17.08
2018-09-06T02:45:44.639Z,17.12
2018-09-06T02:46:44.625Z,17.21
2018-09-06T02:47:44.612Z,17.21
2018-09-06T02:48:44.602Z,17.14
2018-09-06T02:49:44.580Z,17.15
2018-09-06T02:50:44.561Z,17.33
2018-09-06T02:51:44.545Z,17.12
2018-09-06T02:52:44.531Z,17.28
2018-09-06T02:53:44.535Z,17.21
2018-09-06T02:54:44.499Z,17.12
2018-09-06T02:55:44.485Z,17.16
2018-09-06T02:56:44.466Z,17.22
2018-09-06T02:57:44.451Z,17.22
2018-09-06T02:58:44.444Z,17.19
2018-09-06T02:59:44.422Z,17.14
2018-09-06T03:00:44.409Z,17.16
2018-09-06T03:01:44.391Z,17.15
2018-09-06T03:02:44.373Z,17.07
2018-09-06T03:03:44.357Z,17.08
2018-09-06T03:04:44.341Z,17.07
2018-09-06T03:05:44.326Z,17.01
2018-09-06T03:06:44.309Z,17.11
2018-09-06T03:07:44.296Z,17.08
2018-09-06T03:08:44.277Z,17.06
2018-09-06T03:09:44.293Z,16.94
2018-09-06T03:10:44.247Z,16.98
2018-09-06T03:11:44.231Z,17.00
2018-09-06T03:12:44.216Z,16.93
2018-09-06T03:13:44.200Z,17.03
2018-09-06T03:14:44.184Z,16.97
2018-09-06T03:15:44.168Z,16.91
2018-09-06T03:16:44.152Z,16.86
2018-09-06T03:17:44.138Z,16.86
2018-09-06T03:18:44.122Z,16.88
2018-09-06T03:19:44.109Z,16.89
2018-09-06T03:20:44.092Z,16.89
2018-09-06T03:21:44.077Z,16.86
2018-09-06T03:22:44.061Z,16.79
2018-09-06T03:23:44.044Z,16.79
2018-09-06T03:24:44.028Z,16.73
2018-09-06T03:25:44.014Z,16.78
2018-09-06T03:26:43.995Z,16.75
2018-09-06T03:27:43.982Z,16.76
2018-09-06T03:28:43.966Z,16.76
2018-09-06T03:29:43.951Z,16.82
2018-09-06T03:30:43.934Z,16.76
2018-09-06T03:31:43.921Z,16.71
2018-09-06T03:32:43.902Z,16.73
2018-09-06T03:33:43.891Z,16.73
2018-09-06T03:34:43.872Z,16.73
2018-09-06T03:35:43.854Z,16.61
2018-09-06T03:36:43.838Z,16.70
2018-09-06T03:37:43.825Z,16.64
2018-09-06T03:38:43.809Z,16.60
2018-09-06T03:39:43.792Z,16.61
2018-09-06T03:40:43.776Z,16.60
2018-09-06T03:41:43.760Z,16.56
2018-09-06T03:42:43.746Z,16.50
2018-09-06T03:43:43.730Z,16.53
2018-09-06T03:44:43.712Z,16.45
2018-09-06T03:45:43.698Z,16.49
2018-09-06T03:46:43.681Z,16.48
2018-09-06T03:47:43.666Z,16.53
2018-09-06T03:48:43.670Z,16.52
2018-09-06T03:49:43.634Z,16.52
2018-09-06T03:50:43.618Z,16.49
2018-09-06T03:51:43.608Z,16.49
2018-09-06T03:52:43.585Z,16.42
2018-09-06T03:53:43.570Z,16.49
2018-09-06T03:54:43.553Z,16.49
2018-09-06T03:55:43.538Z,16.43
2018-09-06T03:56:43.524Z,16.35
2018-09-06T03:57:43.506Z,16.43
2018-09-06T03:58:43.498Z,16.45
2018-09-06T03:59:43.475Z,16.45
2018-09-06T04:00:43.458Z,16.48
2018-09-06T04:01:43.441Z,16.42
2018-09-06T04:02:43.430Z,16.45
2018-09-06T04:03:43.416Z,16.39
2018-09-06T04:04:43.395Z,16.46
2018-09-06T04:05:43.380Z,16.42
2018-09-06T04:06:43.367Z,16.42
2018-09-06T04:07:43.344Z,16.35
2018-09-06T04:08:43.329Z,16.42
2018-09-06T04:09:43.318Z,16.46
2018-09-06T04:10:43.299Z,16.41
2018-09-06T04:11:43.284Z,16.42
2018-09-06T04:12:43.266Z,16.45
2018-09-06T04:13:43.250Z,16.41
2018-09-06T04:14:43.237Z,16.24
2018-09-06T04:15:43.219Z,16.39
2018-09-06T04:16:43.205Z,16.38
2018-09-06T04:17:43.188Z,16.39
2018-09-06T04:18:43.179Z,16.34
2018-09-06T04:19:43.165Z,16.42
2018-09-06T04:20:43.140Z,16.41
2018-09-06T04:21:43.130Z,16.41
2018-09-06T04:22:43.108Z,16.42
2018-09-06T04:23:43.142Z,16.35
2018-09-06T04:24:43.076Z,16.33
2018-09-06T04:25:43.059Z,16.21
2018-09-06T04:26:43.046Z,16.30
2018-09-06T04:27:43.028Z,16.41
2018-09-06T04:28:43.010Z,16.33
2018-09-06T04:29:42.994Z,16.27
2018-09-06T04:30:42.983Z,16.28
2018-09-06T04:31:42.964Z,16.25
2018-09-06T04:32:42.946Z,16.28
2018-09-06T04:33:42.932Z,16.21
2018-09-06T04:34:42.920Z,16.23
2018-09-06T04:35:42.902Z,16.31
2018-09-06T04:36:42.882Z,16.27
2018-09-06T04:37:42.872Z,16.28
2018-09-06T04:38:42.850Z,16.24
2018-09-06T04:39:42.840Z,16.24
2018-09-06T04:40:42.819Z,16.21
2018-09-06T04:41:42.801Z,16.27
2018-09-06T04:42:42.988Z,16.24
2018-09-06T04:43:42.793Z,16.28
2018-09-06T04:44:42.755Z,16.25
2018-09-06T04:45:42.736Z,16.17
2018-09-06T04:46:42.728Z,16.21
2018-09-06T04:47:42.704Z,16.27
2018-09-06T04:48:42.688Z,16.28
2018-09-06T04:49:42.676Z,16.33
2018-09-06T04:50:42.656Z,16.27
2018-09-06T04:51:42.642Z,16.27
2018-09-06T04:52:42.622Z,16.33
2018-09-06T04:53:42.606Z,16.38
2018-09-06T04:54:42.591Z,16.34
2018-09-06T04:55:42.575Z,16.34
2018-09-06T04:56:42.558Z,16.39
2018-09-06T04:57:42.551Z,16.38
2018-09-06T04:58:42.528Z,16.41
2018-09-06T04:59:42.509Z,16.35
2018-09-06T05:00:42.492Z,16.38
2018-09-06T05:01:42.478Z,16.42
2018-09-06T05:02:42.462Z,16.42
2018-09-06T05:03:42.445Z,16.34
2018-09-06T05:04:42.432Z,16.38
2018-09-06T05:05:42.413Z,16.38
2018-09-06T05:06:42.397Z,16.41
2018-09-06T05:07:43.795Z,16.35
2018-09-06T05:08:42.365Z,16.39
2018-09-06T05:09:42.349Z,16.39
2018-09-06T05:11:43.125Z,16.42
2018-09-06T05:13:42.287Z,16.23
2018-09-06T05:17:42.218Z,16.30
2018-09-06T05:19:42.187Z,16.48
2018-09-06T05:21:42.151Z,16.24
2018-09-06T05:23:42.122Z,16.43
2018-09-06T05:24:42.105Z,16.41
2018-09-06T05:26:42.072Z,16.45
2018-09-06T05:27:42.071Z,16.39
2018-09-06T05:28:42.049Z,16.45
2018-09-06T05:29:42.025Z,16.39
2018-09-06T05:30:42.065Z,16.41
2018-09-06T05:31:43.411Z,16.38
2018-09-06T05:32:41.980Z,16.49
2018-09-06T05:33:41.960Z,16.48
2018-09-06T05:34:41.944Z,16.48
2018-09-06T05:35:41.927Z,16.52
2018-09-06T05:36:41.922Z,16.52
2018-09-06T05:37:41.905Z,16.48
2018-09-06T05:38:41.883Z,16.45
2018-09-06T05:39:41.866Z,16.53
2018-09-06T05:40:41.846Z,16.53
2018-09-06T05:41:41.829Z,16.56
2018-09-06T05:42:41.814Z,16.52
2018-09-06T05:43:41.798Z,16.63
2018-09-06T05:44:41.785Z,16.67
2018-09-06T05:45:41.767Z,16.63
2018-09-06T05:46:41.749Z,16.68
2018-09-06T05:47:41.739Z,16.76
2018-09-06T05:48:41.719Z,16.76
2018-09-06T05:49:41.709Z,16.83
2018-09-06T05:50:41.686Z,16.83
2018-09-06T05:51:41.677Z,16.89
2018-09-06T05:52:41.651Z,16.89
2018-09-06T05:53:41.636Z,17.03
2018-09-06T05:54:41.622Z,16.98
2018-09-06T05:55:41.604Z,17.03
2018-09-06T05:56:41.596Z,17.11
2018-09-06T05:58:44.798Z,17.15
2018-09-06T05:59:41.613Z,17.14
2018-09-06T06:00:41.528Z,17.11
2018-09-06T06:01:41.510Z,17.18
2018-09-06T06:02:41.494Z,17.19
2018-09-06T06:03:41.490Z,17.18
2018-09-06T06:04:41.462Z,17.18
2018-09-06T06:05:41.454Z,17.23
2018-09-06T06:06:41.430Z,17.30
2018-09-06T06:07:41.421Z,17.21
2018-09-06T06:08:41.398Z,17.34
2018-09-06T06:09:41.384Z,17.36
2018-09-06T06:10:41.368Z,17.43
2018-09-06T06:11:41.368Z,17.41
2018-09-06T06:12:41.336Z,17.54
2018-09-06T06:13:41.318Z,17.54
2018-09-06T06:14:41.302Z,17.62
2018-09-06T06:15:41.293Z,17.70
2018-09-06T06:16:41.272Z,17.58
2018-09-06T06:17:41.256Z,17.72
2018-09-06T06:18:41.239Z,17.64
2018-09-06T06:19:41.227Z,17.64
2018-09-06T06:20:41.209Z,17.66
2018-09-06T06:21:41.196Z,17.71
2018-09-06T06:22:41.176Z,17.79
2018-09-06T06:23:41.162Z,17.81
2018-09-06T06:24:41.144Z,17.81
2018-09-06T06:25:41.130Z,17.78
2018-09-06T06:26:41.128Z,17.84
2018-09-06T06:27:41.098Z,17.87
2018-09-06T06:28:41.081Z,17.84
2018-09-06T06:29:41.069Z,17.96
2018-09-06T06:30:41.051Z,18.02
2018-09-06T06:31:41.035Z,18.02
2018-09-06T06:32:41.019Z,18.05
2018-09-06T06:33:41.007Z,18.05
2018-09-06T06:34:40.990Z,18.08
2018-09-06T06:35:40.975Z,18.12
2018-09-06T06:36:40.961Z,18.15
2018-09-06T06:37:40.945Z,18.33
2018-09-06T06:38:40.928Z,18.37
2018-09-06T06:39:40.964Z,18.35
2018-09-06T06:40:40.895Z,18.42
2018-09-06T06:41:40.880Z,18.54
2018-09-06T06:42:41.271Z,18.63
2018-09-06T06:43:40.850Z,18.67
2018-09-06T06:44:40.843Z,18.67
2018-09-06T06:45:40.821Z,18.84
2018-09-06T06:46:40.809Z,18.88
2018-09-06T06:47:40.790Z,18.90
2018-09-06T06:48:41.786Z,19.08
2018-09-06T06:49:40.760Z,19.31
2018-09-06T06:50:40.744Z,19.55
2018-09-06T06:51:40.740Z,19.58
2018-09-06T06:52:40.714Z,19.78
2018-09-06T06:53:40.707Z,19.83
2018-09-06T06:54:40.684Z,19.96
2018-09-06T06:55:40.669Z,20.23
2018-09-06T06:56:40.654Z,20.33
2018-09-06T06:57:40.647Z,20.48
2018-09-06T06:58:40.671Z,20.66
2018-09-06T06:59:40.609Z,20.62
2018-09-06T07:00:40.595Z,20.87
2018-09-06T07:01:40.581Z,20.95
2018-09-06T07:02:40.564Z,21.16
2018-09-06T07:03:40.554Z,21.43
2018-09-06T07:04:40.563Z,21.91
2018-09-06T07:05:40.522Z,22.47
2018-09-06T07:06:40.512Z,23.12
2018-09-06T07:07:40.493Z,23.72
2018-09-06T07:08:40.477Z,24.21
2018-09-06T07:09:41.075Z,24.87
2018-09-06T07:10:40.457Z,25.43
2018-09-06T07:11:40.438Z,25.79
2018-09-06T07:12:40.422Z,26.20
2018-09-06T07:13:40.414Z,26.60
2018-09-06T07:14:40.398Z,26.85
2018-09-06T07:15:40.389Z,27.03
2018-09-06T07:16:40.377Z,27.37
2018-09-06T07:17:40.360Z,27.60
2018-09-06T07:18:40.434Z,28.14
2018-09-06T07:19:40.341Z,28.39
2018-09-06T07:20:40.323Z,28.21
2018-09-06T07:21:40.314Z,28.30
2018-09-06T07:22:40.304Z,28.48
2018-09-06T07:23:40.289Z,28.34
2018-09-06T07:24:40.276Z,28.56
2018-09-06T07:25:40.266Z,28.92
2018-09-06T07:26:40.256Z,29.23
2018-09-06T07:27:40.247Z,29.61
2018-09-06T07:28:40.234Z,29.74
2018-09-06T07:29:40.229Z,30.10
2018-09-06T07:30:40.297Z,30.20
2018-09-06T07:31:40.206Z,30.32
2018-09-06T07:32:40.192Z,30.39
2018-09-06T07:33:40.185Z,30.55
2018-09-06T07:34:40.179Z,30.91
2018-09-06T07:35:40.174Z,31.14
2018-09-06T07:36:42.777Z,31.28
2018-09-06T07:37:40.148Z,31.31
2018-09-06T07:38:40.140Z,31.34
2018-09-06T07:39:40.135Z,31.51
2018-09-06T07:40:40.123Z,31.66
2018-09-06T07:41:40.116Z,31.61
2018-09-06T07:42:40.107Z,31.53
2018-09-06T07:43:40.103Z,31.89
2018-09-06T07:44:40.094Z,31.81
2018-09-06T07:45:40.088Z,32.23
2018-09-06T07:46:40.128Z,32.40
2018-09-06T07:47:40.072Z,32.77
2018-09-06T07:48:40.062Z,33.16
2018-09-06T07:49:40.056Z,33.56
2018-09-06T07:50:40.057Z,33.93
2018-09-06T07:51:40.043Z,33.93
2018-09-06T07:52:40.046Z,33.82
2018-09-06T07:53:40.031Z,33.69
2018-09-06T07:54:40.024Z,33.82
2018-09-06T07:55:40.018Z,34.17
2018-09-06T07:56:40.015Z,34.35
2018-09-06T07:57:40.008Z,34.19
2018-09-06T07:58:40.022Z,34.46
2018-09-06T07:59:40.016Z,34.75
2018-09-06T08:00:39.990Z,34.97
2018-09-06T08:01:39.998Z,35.22
2018-09-06T08:02:39.979Z,35.37
2018-09-06T08:03:39.971Z,35.34
2018-09-06T08:04:39.970Z,35.25
2018-09-06T08:05:39.965Z,35.14
2018-09-06T08:06:39.971Z,35.22
2018-09-06T08:07:39.955Z,35.52
2018-09-06T08:08:39.946Z,35.80
2018-09-06T08:09:39.943Z,35.84
2018-09-06T08:10:39.936Z,36.09
2018-09-06T08:11:39.933Z,36.17
2018-09-06T08:12:39.927Z,36.29
2018-09-06T08:13:39.922Z,36.69
2018-09-06T08:14:39.917Z,37.02
2018-09-06T08:15:39.913Z,36.99
2018-09-06T08:16:39.909Z,37.03
2018-09-06T08:17:39.904Z,37.12
2018-09-06T08:18:39.933Z,37.02
2018-09-06T08:19:39.896Z,37.07
2018-09-06T08:20:39.902Z,37.41
2018-09-06T08:21:39.887Z,37.81
2018-09-06T08:22:39.884Z,37.91
2018-09-06T08:23:39.880Z,37.98
2018-09-06T08:24:39.877Z,38.18
2018-09-06T08:25:39.873Z,38.30
2018-09-06T08:26:39.867Z,38.49
2018-09-06T08:27:39.869Z,38.72
2018-09-06T08:28:39.859Z,38.65
2018-09-06T08:29:39.853Z,38.34
2018-09-06T08:30:39.940Z,38.59
2018-09-06T08:31:39.855Z,37.06
2018-09-06T08:32:39.845Z,37.36
2018-09-06T08:33:39.845Z,37.39
2018-09-06T08:34:39.837Z,37.44
2018-09-06T08:35:39.841Z,37.76
2018-09-06T08:36:39.837Z,37.70
2018-09-06T08:37:39.828Z,37.31
2018-09-06T08:38:39.825Z,37.47
2018-09-06T08:39:39.822Z,37.28
2018-09-06T08:40:39.817Z,37.28
2018-09-06T08:41:39.816Z,37.70
2018-09-06T08:42:39.816Z,38.16
2018-09-06T08:43:39.809Z,38.06
2018-09-06T08:44:39.804Z,38.28
2018-09-06T08:45:39.807Z,38.30
2018-09-06T08:46:39.799Z,38.04
2018-09-06T08:47:39.870Z,38.04
2018-09-06T08:48:39.794Z,38.30
2018-09-06T08:49:39.797Z,38.28
2018-09-06T08:50:42.474Z,38.41
2018-09-06T08:51:39.792Z,38.75
2018-09-06T08:52:39.781Z,38.56
2018-09-06T08:53:39.779Z,38.76
2018-09-06T08:54:39.776Z,38.20
2018-09-06T08:55:39.773Z,38.00
2018-09-06T08:56:39.774Z,37.97
2018-09-06T08:57:39.769Z,38.47
2018-09-06T08:58:39.856Z,38.03
2018-09-06T08:59:39.763Z,38.37
2018-09-06T09:00:39.769Z,38.44
2018-09-06T09:01:39.757Z,38.50
2018-09-06T09:02:39.817Z,38.32
2018-09-06T09:03:39.758Z,38.61
2018-09-06T09:04:39.808Z,38.83
2018-09-06T09:05:39.752Z,39.09
2018-09-06T09:06:39.748Z,39.26
2018-09-06T09:07:39.865Z,39.04
2018-09-06T09:08:39.745Z,38.90
2018-09-06T09:09:39.744Z,38.75
2018-09-06T09:10:39.739Z,38.79
2018-09-06T09:11:39.737Z,38.78
2018-09-06T09:12:39.735Z,38.53
2018-09-06T09:13:39.735Z,38.25
2018-09-06T09:14:39.732Z,38.25
2018-09-06T09:15:39.736Z,38.23
2018-09-06T09:16:39.727Z,38.31
2018-09-06T09:17:39.725Z,38.20
2018-09-06T09:18:39.722Z,38.30
2018-09-06T09:19:39.722Z,38.00
2018-09-06T09:20:39.722Z,38.04
2018-09-06T09:21:39.823Z,37.78
2018-09-06T09:22:40.124Z,37.64
2018-09-06T09:23:39.716Z,37.51
2018-09-06T09:24:39.713Z,36.91
2018-09-06T09:25:39.797Z,36.68
2018-09-06T09:26:39.714Z,36.57
2018-09-06T09:27:39.709Z,36.20
2018-09-06T09:28:39.707Z,36.09
2018-09-06T09:29:39.706Z,35.68
2018-09-06T09:30:39.753Z,35.25
2018-09-06T09:31:39.704Z,35.23
2018-09-06T09:32:39.702Z,35.09
2018-09-06T09:33:39.700Z,35.16
2018-09-06T09:34:39.702Z,35.10
2018-09-06T09:35:39.699Z,34.73
2018-09-06T09:36:39.696Z,34.40
2018-09-06T09:37:39.704Z,33.78
2018-09-06T09:38:39.700Z,33.78
2018-09-06T09:39:39.690Z,33.68
2018-09-06T09:40:39.688Z,33.91
2018-09-06T09:41:39.686Z,34.50
2018-09-06T09:42:39.685Z,34.69
2018-09-06T09:43:39.683Z,35.14
2018-09-06T09:44:39.681Z,35.36
2018-09-06T09:45:39.678Z,35.48
2018-09-06T09:47:58.619Z,36.35
2018-09-06T09:48:58.620Z,36.43
2018-09-06T09:49:58.618Z,36.95
2018-09-06T09:50:58.614Z,37.34
2018-09-06T09:51:58.615Z,37.56
2018-09-06T09:52:58.609Z,37.96
2018-09-06T09:53:58.611Z,38.04
2018-09-06T09:54:58.605Z,38.18
2018-09-06T09:55:58.607Z,38.44
2018-09-06T09:56:58.605Z,38.60
2018-09-06T09:57:58.600Z,38.90
2018-09-06T09:58:58.600Z,39.10
2018-09-06T09:59:58.596Z,39.10
2018-09-06T10:00:58.600Z,39.13
2018-09-06T10:01:58.600Z,39.50
2018-09-06T10:02:58.600Z,39.78
2018-09-06T10:03:58.590Z,39.70
2018-09-06T10:04:58.592Z,39.21
2018-09-06T10:05:58.589Z,39.23
2018-09-06T10:06:58.587Z,39.29
2018-09-06T10:07:58.583Z,39.44
2018-09-06T10:08:58.587Z,39.77
2018-09-06T10:09:58.584Z,39.82
2018-09-06T10:10:58.580Z,39.50
2018-09-06T10:11:58.581Z,39.70
2018-09-06T10:12:58.579Z,40.04
2018-09-06T10:13:58.581Z,40.22
2018-09-06T10:14:58.577Z,40.01
2018-09-06T10:15:58.575Z,40.01
2018-09-06T10:16:58.575Z,40.38
2018-09-06T10:17:58.650Z,40.48
2018-09-06T10:18:58.574Z,40.65
2018-09-06T10:19:58.578Z,40.92
2018-09-06T10:20:58.580Z,41.11
2018-09-06T10:21:58.577Z,41.18
2018-09-06T10:22:58.576Z,41.32
2018-09-06T10:23:58.572Z,41.26
2018-09-06T10:24:58.576Z,41.51
2018-09-06T10:25:58.571Z,41.32
2018-09-06T10:26:58.573Z,41.48
2018-09-06T10:27:58.571Z,41.48
2018-09-06T10:28:58.574Z,41.21
2018-09-06T10:29:58.572Z,41.37
2018-09-06T10:30:58.571Z,41.44
2018-09-06T10:31:58.571Z,41.69
2018-09-06T10:32:58.571Z,41.73
2018-09-06T10:33:58.571Z,41.71
2018-09-06T10:34:58.582Z,41.66
2018-09-06T10:35:58.573Z,41.58
2018-09-06T10:36:58.574Z,41.71
2018-09-06T10:37:58.571Z,42.13
2018-09-06T10:38:58.576Z,42.20
2018-09-06T10:39:58.665Z,42.31
2018-09-06T10:40:58.575Z,41.87
2018-09-06T10:41:58.574Z,41.30
2018-09-06T10:42:58.611Z,41.36
2018-09-06T10:43:58.579Z,41.54
2018-09-06T10:44:58.580Z,41.90
2018-09-06T10:45:58.577Z,42.01
2018-09-06T10:46:58.582Z,42.16
2018-09-06T10:47:58.700Z,42.28
2018-09-06T10:48:58.581Z,42.42
2018-09-06T10:49:58.582Z,42.71
2018-09-06T10:50:58.582Z,42.87
2018-09-06T10:51:58.586Z,43.22
2018-09-06T10:52:58.583Z,43.03
2018-09-06T10:53:58.589Z,43.27
2018-09-06T10:54:58.588Z,43.10
2018-09-06T10:55:58.587Z,43.47
2018-09-06T10:56:58.588Z,42.73
2018-09-06T10:57:58.590Z,42.28
2018-09-06T10:58:58.600Z,41.47
2018-09-06T10:59:58.596Z,40.22
2018-09-06T11:00:58.594Z,39.25
2018-09-06T11:01:58.595Z,38.42
2018-09-06T11:02:58.604Z,38.20
2018-09-06T11:03:58.596Z,38.65
2018-09-06T11:04:58.601Z,39.22
2018-09-06T11:05:58.600Z,39.52
2018-09-06T11:06:58.598Z,40.03
2018-09-06T11:07:58.681Z,39.73
2018-09-06T11:08:58.606Z,38.88
2018-09-06T11:09:58.602Z,38.31
2018-09-06T11:10:58.601Z,37.66
2018-09-06T11:11:58.606Z,37.17
2018-09-06T11:12:58.606Z,37.06
2018-09-06T11:13:58.603Z,37.70
2018-09-06T11:14:58.645Z,38.53
2018-09-06T11:15:58.602Z,39.38
2018-09-06T11:16:58.606Z,40.06
2018-09-06T11:17:58.637Z,40.45
2018-09-06T11:18:58.602Z,40.57
2018-09-06T11:19:58.601Z,41.11
2018-09-06T11:20:58.610Z,41.39
2018-09-06T11:21:58.740Z,41.96
2018-09-06T11:22:58.600Z,41.30
2018-09-06T11:23:58.601Z,41.21
2018-09-06T11:24:58.603Z,41.39
2018-09-06T11:25:58.603Z,41.37
2018-09-06T11:26:58.603Z,40.50
2018-09-06T11:27:58.704Z,40.79
2018-09-06T11:28:58.604Z,40.45
2018-09-06T11:29:58.610Z,39.54
2018-09-06T11:30:58.605Z,38.56
2018-09-06T11:31:58.601Z,37.82
2018-09-06T11:32:58.605Z,37.32
2018-09-06T11:33:58.607Z,38.16
2018-09-06T11:34:58.608Z,38.81
2018-09-06T11:35:58.601Z,39.63
2018-09-06T11:36:58.607Z,39.97
2018-09-06T11:37:58.606Z,40.41
2018-09-06T11:38:58.600Z,40.01
2018-09-06T11:39:58.620Z,39.26
2018-09-06T11:40:58.601Z,38.23
2018-09-06T11:41:58.619Z,37.47
2018-09-06T11:42:58.599Z,36.94
2018-09-06T11:43:58.626Z,36.38
2018-09-06T11:44:58.603Z,35.96
2018-09-06T11:45:58.602Z,36.81
2018-09-06T11:46:58.607Z,37.63
2018-09-06T11:47:58.655Z,38.26
2018-09-06T11:48:58.595Z,38.06
2018-09-06T11:49:58.595Z,37.40
2018-09-06T11:50:58.592Z,36.68
2018-09-06T11:51:58.592Z,36.44
2018-09-06T11:52:58.595Z,37.15
2018-09-06T11:53:58.593Z,37.91
2018-09-06T11:54:58.588Z,38.01
2018-09-06T11:55:58.588Z,38.65
2018-09-06T11:56:58.586Z,39.22
2018-09-06T11:57:58.586Z,39.51
2018-09-06T11:58:58.584Z,39.70
2018-09-06T11:59:58.583Z,39.72
2018-09-06T12:00:58.581Z,38.91
2018-09-06T12:01:58.614Z,39.16
2018-09-06T12:02:58.581Z,39.25
2018-09-06T12:03:58.578Z,39.38
2018-09-06T12:04:58.577Z,39.54
2018-09-06T12:05:58.605Z,39.85
2018-09-06T12:06:58.576Z,40.08
2018-09-06T12:07:58.576Z,40.45
2018-09-06T12:08:58.574Z,40.91
2018-09-06T12:09:58.574Z,40.94
2018-09-06T12:10:58.576Z,40.34
2018-09-06T12:11:58.596Z,39.60
2018-09-06T12:12:58.576Z,38.52
2018-09-06T12:13:58.573Z,37.67
2018-09-06T12:14:58.570Z,36.81
2018-09-06T12:15:58.569Z,36.23
2018-09-06T12:16:58.572Z,35.28
2018-09-06T12:17:58.571Z,36.23
2018-09-06T12:18:58.565Z,36.90
2018-09-06T12:19:58.567Z,37.59
2018-09-06T12:20:58.565Z,38.03
2018-09-06T12:21:58.565Z,38.61
2018-09-06T12:22:58.566Z,39.17
2018-09-06T12:23:58.569Z,39.41
2018-09-06T12:24:58.563Z,39.43
2018-09-06T12:25:58.560Z,39.62
2018-09-06T12:26:58.567Z,39.97
2018-09-06T12:27:58.558Z,39.57
2018-09-06T12:28:58.556Z,39.18
2018-09-06T12:29:58.557Z,38.52
2018-09-06T12:30:58.554Z,38.91
2018-09-06T12:31:58.554Z,39.17
2018-09-06T12:32:58.554Z,39.36
2018-09-06T12:33:58.558Z,38.95
2018-09-06T12:34:58.550Z,38.34
2018-09-06T12:35:58.553Z,37.94
2018-09-06T12:36:58.552Z,37.47
2018-09-06T12:37:58.546Z,36.90
2018-09-06T12:38:58.548Z,36.20
2018-09-06T12:39:58.545Z,35.50
2018-09-06T12:40:58.542Z,35.00
2018-09-06T12:41:58.540Z,34.62
2018-09-06T12:42:58.537Z,34.78
2018-09-06T12:43:58.536Z,34.72
2018-09-06T12:44:58.534Z,34.24
2018-09-06T12:45:58.534Z,34.17
2018-09-06T12:46:58.530Z,33.66
2018-09-06T12:47:58.530Z,33.21
2018-09-06T12:48:58.527Z,32.84
2018-09-06T12:49:58.522Z,32.56
2018-09-06T12:50:58.526Z,32.51
2018-09-06T12:51:58.520Z,32.29
2018-09-06T12:52:58.515Z,31.92
2018-09-06T12:53:58.513Z,31.46
2018-09-06T12:54:58.511Z,31.25
2018-09-06T12:55:58.510Z,31.17
2018-09-06T12:56:58.504Z,31.09
2018-09-06T12:57:58.504Z,30.84
2018-09-06T12:58:58.503Z,30.80
2018-09-06T12:59:58.494Z,30.82
2018-09-06T13:00:58.493Z,30.72
2018-09-06T13:01:58.488Z,30.73
2018-09-06T13:02:58.485Z,30.82
2018-09-06T13:03:58.485Z,30.98